Airport View

Enter AWOS ICAO identifier for current METAR.

ex. KFNL

KEYF 191900Z AUTO 23007G14KT 180V320 10SM SCT046 33/21 A2982 RMK AO2 T03250210

19 Jun 2019 19:24

Frequency: 119.475

Phone: 910-862-9982

Other Area AWOS: KCPC - KLBT - KCTZ - KFAY

KLBT 191720Z 1918/2018 23010G19KT P6SM VCTS BKN045CB FM200000 21006KT P6SM BKN100 FM201000 24009KT P6SM SCT008 FM201200 25010KT P6SM SCT035 AMD NOT SKED